Wargrave, United Kingdom
Current Conditions -  °F | °C
As of 11:50 AM on Friday 28 Nov 2014 (Local Time) from EGUB Reporting Station
Haze Haze  
Wind Chill: 12°   Ceiling: 1000
Heat Index: 12°   Visibility: 5mi
Dew Point: 10°   Wind: 13mph
Humidity: 88%   Direction: 160°SSE
Pressure: 29.56"   Gusts: NA
Location:  51.5°N, 0.87°W
Report Text: EGUB 281150Z 16011KT 8000 HZ BKN010 12/10 Q1001 GRN NOSIG
Loading
Personal Weather Stations






























Interactive Weather Map New forecast layout! Learn more

10-Day Weather Forecast

Advertisements
Track Severe Weather on mobile